This is the latest recevied weather packets stored in our database for station/object WX7FGZ-5. If no packets are shown the sender has not sent any weather packets the latest 1 day(s).
| Time | Temp. | Humidity | Pressure | Rain* | Wind** | Luminosity | Snow |
|---|---|---|---|---|---|---|---|
| 1836274544 | 12.22° C | 82% | 1028.1 hPa | 0 mm | 0 m/s | - | - |
| 1836274394 | 12.78° C | 80% | 1027.9 hPa | 0 mm | 0 m/s | - | - |
| 1836274101 | 12.78° C | 80% | 1027.7 hPa | 0 mm | 0 m/s | - | - |
| 1778029324 | 3.89° C | 81% | 1017 hPa | 0.25 mm | 0.89 m/s, 89° | 69 W/m² | - |
| 1778029024 | 3.89° C | 81% | 1017 hPa | 0.25 mm | 1.79 m/s, 78° | 62 W/m² | - |
| 1778028855 | 3.89° C | 81% | 1017.1 hPa | 0.25 mm | 3.58 m/s, 74° | 54 W/m² | - |
| 1778028724 | 3.89° C | 81% | 1017.1 hPa | 0.25 mm | 3.58 m/s, 74° | 54 W/m² | - |
| 1778028580 | 3.89° C | 82% | 1017.2 hPa | 0.25 mm | 3.58 m/s, 85° | 47 W/m² | - |
| 1778028424 | 3.89° C | 82% | 1017.2 hPa | 0.25 mm | 3.58 m/s, 85° | 47 W/m² | - |
| 1778027824 | 4.44° C | 80% | 1017.1 hPa | 0.25 mm | 3.58 m/s, 116° | 58 W/m² | - |
| 1778027495 | 4.44° C | 80% | 1016.5 hPa | 0.25 mm | 3.13 m/s, 60° | 63 W/m² | - |
| 1778027343 | 4.44° C | 80% | 1016.5 hPa | 0.25 mm | 3.13 m/s, 60° | 63 W/m² | - |
| 1778027044 | 4.44° C | 83% | 1016.7 hPa | 0 mm | 3.58 m/s, 76° | 63 W/m² | - |
| 1778026443 | 4.44° C | 81% | 1017 hPa | 0 mm | 1.79 m/s, 87° | 72 W/m² | - |
| 1778025959 | 4.44° C | 81% | 1017.1 hPa | 0 mm | 0.89 m/s, 118° | 53 W/m² | - |
| 1778025843 | 4.44° C | 81% | 1017.1 hPa | 0 mm | 0.89 m/s, 118° | 53 W/m² | - |
| 1778025544 | 4.44° C | 81% | 1017 hPa | 0 mm | 1.79 m/s, 95° | 58 W/m² | - |
| 1778025412 | 4.44° C | 80% | 1016.8 hPa | 0 mm | 1.79 m/s, 105° | 53 W/m² | - |
| 1778025243 | 4.44° C | 80% | 1016.8 hPa | 0 mm | 1.79 m/s, 105° | 53 W/m² | - |
| 1778024944 | 4.44° C | 80% | 1016.7 hPa | 0 mm | 1.34 m/s, 88° | 37 W/m² | - |
| 1778024544 | 4.44° C | 81% | 1016.7 hPa | 0 mm | 0.89 m/s, 112° | 76 W/m² | - |
| 1778024245 | 4.44° C | 81% | 1016.8 hPa | 0 mm | 1.34 m/s, 114° | 95 W/m² | - |
| 1778024087 | 4.44° C | 82% | 1016.3 hPa | 0 mm | 2.24 m/s, 90° | 113 W/m² | - |
| 1778023943 | 4.44° C | 82% | 1016.3 hPa | 0 mm | 2.24 m/s, 90° | 113 W/m² | - |
| 1778023644 | 4.44° C | 81% | 1016.2 hPa | 0 mm | 3.58 m/s, 93° | 104 W/m² | - |
* Rain latest hour (hover to see other rain measurements)
** Current wind speed in m/s (hover to see current wind gust speed)